Perrysburg, OH (43551)

1:08 PM EDT on April 29, 2017 (GMT -0400)
Oak Meadows | | Change Station

Elev 636 ft 41.53 °N, 83.59 °W | Updated 12 days ago

Overcast
Overcast
59.9 °F
Feels Like 59.9 °F
N
1.6
Wind Variable Wind from North
Gusts 3.1 mph

Today
High -- | Low -- °F
--% Chance of Precip.
Yesterday
High -- | Low -- °F
Precip. -- in
Pressure 30.22 in
Visibility 10.0 miles
Clouds Scattered Clouds 2700 ft
Overcast 3400 ft
Dew Point 44 °F
Humidity 56%
Rainfall 0.35 in
Snow Depth Not available.
6:33 AM 8:30 PM
Waxing Crescent, 15% visible
METAR KTDZ 291653Z AUTO 04009KT 10SM SCT027 OVC034 08/06 A3021 RMK AO2 RAE39 SLP231 P0001 T00780061
Pressure 30.22 in
Visibility 10.0 miles
Clouds Scattered Clouds 2700 ft
Overcast 3400 ft
Dew Point 44 °F
Humidity 56%
Rainfall 0.35 in
Snow Depth Not available.
6:33 AM 8:30 PM
Waxing Crescent, 15% visible
METAR KTDZ 291653Z AUTO 04009KT 10SM SCT027 OVC034 08/06 A3021 RMK AO2 RAE39 SLP231 P0001 T00780061

Get Severe Weather Alerts

Thanks for signing up!

Be on the lookout for a verification email in your inbox.

You'll start receiving the daily forecast at 8 AM.

×

10-Day Weather Forecast

Almanac

Astronomy

Apr. 29, 2017 Rise Set
Actual Time
Civil Twilight
Nautical Twilight
Astronomical Twilight
Moon
Length of Visible Light
Length of Day
Tomorrow will be .
, % of the Moon is Illuminated

Today's Extremes

State Highs State Lows

Community

WunderPhotos

WunderBlog® & News

Nearby

Air Quality

  Air Quality AQ Index Pollutant
Not available.

Snow Depth

Station Depth Elevation

Earthquake Activity

City Distance Mag. Time & Date
Minimum magnitude displayed is 2.5.

Coastal Water Temperatures

Place Temperature

Stations

Nearby Weather Stations

Station Location Temp. Windchill Dew Point Humidity Wind Precip. Elev Updated Type
                   

Watches & Warnings

There are currently no watches in effect.